createdAt,value
2023-01-04T00:03:27.022Z,89.75
2023-01-04T00:07:26.461Z,89.70
2023-01-04T00:11:26.201Z,89.70
2023-01-04T00:15:25.480Z,89.60
2023-01-04T00:19:25.185Z,89.59
2023-01-04T00:23:39.063Z,89.54
2023-01-04T00:27:38.656Z,89.47
2023-01-04T00:31:38.624Z,89.44
2023-01-04T00:35:46.372Z,89.42
2023-01-04T00:39:45.863Z,89.50
2023-01-04T00:43:45.506Z,89.52
2023-01-04T00:47:44.419Z,89.43
2023-01-04T00:51:44.040Z,89.35
2023-01-04T00:55:43.446Z,89.34
2023-01-04T00:59:42.723Z,89.29
2023-01-04T01:03:56.549Z,89.24
2023-01-04T01:07:55.925Z,89.19
2023-01-04T01:11:54.977Z,89.12
2023-01-04T01:16:10.455Z,89.05
2023-01-04T01:20:10.407Z,88.87
2023-01-04T01:24:15.244Z,88.69
2023-01-04T01:28:14.537Z,88.54
2023-01-04T01:32:13.858Z,88.45
2023-01-04T01:36:13.937Z,88.41
2023-01-04T01:40:13.079Z,88.43
2023-01-04T01:44:31.541Z,88.46
2023-01-04T01:48:45.615Z,88.48
2023-01-04T01:52:44.897Z,88.47
2023-01-04T01:56:46.496Z,88.47
2023-01-04T02:00:45.429Z,88.51
2023-01-04T02:04:48.677Z,88.53
2023-01-04T02:08:48.987Z,88.57
2023-01-04T02:12:51.631Z,88.63
2023-01-04T02:17:01.188Z,88.65
2023-01-04T02:21:06.839Z,88.67
2023-01-04T02:25:32.269Z,88.72
2023-01-04T02:29:52.213Z,88.77
2023-01-04T02:33:16.154Z,88.78
2023-01-04T02:37:18.892Z,88.80
2023-01-04T02:41:37.083Z,88.84
2023-01-04T02:45:58.343Z,88.87
2023-01-04T02:50:16.367Z,88.88
2023-01-04T02:58:44.642Z,88.94
2023-01-04T03:03:22.093Z,88.96
2023-01-04T03:07:49.845Z,88.96
2023-01-04T03:12:24.001Z,88.97
2023-01-04T03:16:25.614Z,88.93
2023-01-04T03:20:39.345Z,88.90
2023-01-04T03:24:57.095Z,88.89
2023-01-04T03:29:32.321Z,88.84
2023-01-04T03:33:50.699Z,88.81
2023-01-04T03:38:16.678Z,88.77
2023-01-04T03:42:48.573Z,88.76
2023-01-04T03:47:10.510Z,88.79
2023-01-04T03:51:27.179Z,88.78
2023-01-04T03:55:29.624Z,88.79
2023-01-04T03:59:28.938Z,88.78
2023-01-04T04:04:00.777Z,88.76
2023-01-04T04:08:18.798Z,88.72
2023-01-04T04:12:18.303Z,88.66
2023-01-04T04:16:17.782Z,88.59
2023-01-04T04:20:17.498Z,88.57
2023-01-04T04:24:30.699Z,88.53
2023-01-04T04:28:30.011Z,88.53
2023-01-04T04:32:29.426Z,88.49
2023-01-04T04:36:29.269Z,88.43
2023-01-04T04:40:47.291Z,88.38
2023-01-04T04:44:46.568Z,88.30
2023-01-04T04:48:45.718Z,88.27
2023-01-04T04:52:45.217Z,88.26
2023-01-04T04:56:44.504Z,88.25
2023-01-04T05:00:43.615Z,88.25
2023-01-04T05:04:43.199Z,88.23
2023-01-04T05:08:42.854Z,88.22
2023-01-04T05:13:00.668Z,88.19
2023-01-04T05:17:00.056Z,88.14
2023-01-04T05:20:59.654Z,88.11
2023-01-04T05:24:59.245Z,88.08
2023-01-04T05:28:58.214Z,88.09
2023-01-04T05:32:57.642Z,88.08
2023-01-04T05:37:10.906Z,88.09
2023-01-04T05:41:30.176Z,88.11
2023-01-04T05:45:43.813Z,88.12
2023-01-04T05:49:44.057Z,88.13
2023-01-04T05:53:43.264Z,88.13
2023-01-04T05:57:43.217Z,88.11
2023-01-04T06:01:42.413Z,88.08
2023-01-04T06:05:42.297Z,88.08
2023-01-04T06:09:41.878Z,88.04
2023-01-04T06:13:40.964Z,88.00
2023-01-04T06:17:40.436Z,87.91
2023-01-04T06:21:40.142Z,87.74
2023-01-04T06:25:39.346Z,87.50
2023-01-04T06:29:53.228Z,86.68
2023-01-04T06:33:53.053Z,85.33
2023-01-04T06:37:52.641Z,84.26
2023-01-04T06:41:52.338Z,83.71
2023-01-04T06:46:05.715Z,83.97
2023-01-04T06:50:05.347Z,84.33
2023-01-04T06:54:18.842Z,84.59
2023-01-04T06:58:18.064Z,84.75
2023-01-04T07:02:31.791Z,84.42
2023-01-04T07:06:09.383Z,84.48
2023-01-04T07:10:10.039Z,84.46
2023-01-04T07:14:09.597Z,84.53
2023-01-04T07:18:09.671Z,84.48
2023-01-04T07:22:09.231Z,84.13
2023-01-04T07:26:08.518Z,84.13
2023-01-04T07:30:08.548Z,84.45
2023-01-04T07:34:07.878Z,84.67
2023-01-04T07:38:07.007Z,84.84
2023-01-04T07:42:07.163Z,84.75
2023-01-04T07:46:07.065Z,84.76
2023-01-04T07:50:20.606Z,84.87
2023-01-04T07:54:21.030Z,85.06
2023-01-04T07:58:20.659Z,85.13
2023-01-04T08:02:20.131Z,85.20
2023-01-04T08:06:33.820Z,85.29
2023-01-04T08:10:33.304Z,85.38
2023-01-04T08:14:32.882Z,85.46
2023-01-04T08:18:32.771Z,85.38
2023-01-04T08:22:32.690Z,85.32
2023-01-04T08:26:32.121Z,85.33
2023-01-04T08:30:31.396Z,85.36
2023-01-04T08:34:31.185Z,85.44
2023-01-04T08:38:58.922Z,85.34
2023-01-04T08:43:03.843Z,85.29
2023-01-04T08:47:03.897Z,85.31
2023-01-04T08:51:17.313Z,85.30
2023-01-04T08:55:22.989Z,85.20
2023-01-04T08:59:22.959Z,85.12
2023-01-04T09:03:37.355Z,85.04
2023-01-04T09:07:58.815Z,85.16
2023-01-04T09:11:16.407Z,85.13
2023-01-04T09:15:29.724Z,84.82
2023-01-04T09:19:29.208Z,84.65
2023-01-04T09:23:31.439Z,84.67
2023-01-04T09:27:32.304Z,84.87
2023-01-04T09:31:09.317Z,84.88
2023-01-04T09:35:09.495Z,84.77
2023-01-04T09:39:13.225Z,84.70
2023-01-04T09:43:21.060Z,84.90
2023-01-04T09:47:21.554Z,84.81
2023-01-04T09:51:37.588Z,85.06
2023-01-04T09:55:43.054Z,85.16
2023-01-04T09:59:44.336Z,85.27
2023-01-04T10:04:03.811Z,85.32
2023-01-04T10:08:03.604Z,85.39
2023-01-04T10:12:22.319Z,85.50
2023-01-04T10:16:44.292Z,85.71
2023-01-04T10:25:32.062Z,85.99
2023-01-04T10:29:43.993Z,85.97
2023-01-04T10:33:46.813Z,86.20
2023-01-04T10:37:46.986Z,86.39
2023-01-04T10:41:54.017Z,86.42
2023-01-04T10:46:13.967Z,86.62
2023-01-04T10:49:40.628Z,86.43
2023-01-04T10:53:56.625Z,86.55
2023-01-04T10:58:06.775Z,86.81
2023-01-04T11:02:26.723Z,87.21
2023-01-04T11:06:53.238Z,87.12
2023-01-04T11:10:56.514Z,87.18
2023-01-04T11:14:56.301Z,87.31
2023-01-04T11:18:56.908Z,87.37
2023-01-04T11:23:00.900Z,87.48
2023-01-04T11:27:20.894Z,87.60
2023-01-04T11:31:42.373Z,87.36
2023-01-04T11:35:46.408Z,87.28
2023-01-04T11:39:45.990Z,87.47
2023-01-04T11:43:56.759Z,87.61
2023-01-04T11:47:57.619Z,87.65
2023-01-04T11:51:57.132Z,87.57
2023-01-04T11:56:16.618Z,87.57
2023-01-04T12:00:16.860Z,87.63
2023-01-04T12:04:30.524Z,87.59
2023-01-04T12:08:35.907Z,87.63
2023-01-04T12:12:35.435Z,87.66
2023-01-04T12:16:34.868Z,87.79
2023-01-04T12:20:36.090Z,87.80
2023-01-04T12:24:35.720Z,87.95
2023-01-04T12:28:39.169Z,88.17
2023-01-04T12:32:40.534Z,88.26
2023-01-04T12:36:40.152Z,88.41
2023-01-04T12:40:49.960Z,88.32
2023-01-04T12:44:52.351Z,88.32
2023-01-04T12:49:03.919Z,88.48
2023-01-04T12:53:29.850Z,88.51
2023-01-04T12:57:26.348Z,88.53
2023-01-04T13:01:29.063Z,88.59
2023-01-04T13:09:55.291Z,88.70
2023-01-04T13:14:06.962Z,88.83
2023-01-04T13:18:24.913Z,88.82
2023-01-04T13:22:29.873Z,88.90
2023-01-04T13:26:30.202Z,88.86
2023-01-04T13:30:38.411Z,88.91
2023-01-04T13:34:50.259Z,88.97
2023-01-04T13:38:49.647Z,89.04
2023-01-04T13:42:52.494Z,89.14
2023-01-04T13:46:54.687Z,88.98
2023-01-04T13:51:00.730Z,89.03
2023-01-04T13:55:13.090Z,89.00
2023-01-04T13:59:13.189Z,89.08
2023-01-04T14:03:31.861Z,89.15
2023-01-04T14:07:31.496Z,89.24
2023-01-04T14:12:06.190Z,89.35
2023-01-04T14:16:15.210Z,89.48
2023-01-04T14:20:23.102Z,89.60
2023-01-04T14:28:56.572Z,89.77
2023-01-04T14:32:56.245Z,89.85
2023-01-04T14:37:02.848Z,89.95
2023-01-04T14:41:25.780Z,90.03
2023-01-04T14:45:25.777Z,90.14
2023-01-04T14:49:44.484Z,90.23
2023-01-04T14:53:03.395Z,90.32
2023-01-04T14:57:03.431Z,90.45
2023-01-04T15:01:03.249Z,90.54
2023-01-04T15:05:02.868Z,90.57
2023-01-04T15:09:03.037Z,90.68
2023-01-04T15:13:04.627Z,90.72
2023-01-04T15:17:04.210Z,90.74
2023-01-04T15:21:04.529Z,90.81
2023-01-04T15:25:04.862Z,90.85
2023-01-04T15:29:06.924Z,90.93
2023-01-04T15:33:06.999Z,90.97
2023-01-04T15:37:24.177Z,90.98
2023-01-04T15:41:01.870Z,90.97
2023-01-04T15:45:01.516Z,91.02
2023-01-04T15:49:01.496Z,91.21
2023-01-04T15:53:02.319Z,91.25
2023-01-04T15:57:01.998Z,91.26
2023-01-04T16:01:07.677Z,91.19
2023-01-04T16:05:08.244Z,91.14
2023-01-04T16:09:08.720Z,91.21
2023-01-04T16:13:08.305Z,91.20
2023-01-04T16:17:08.528Z,91.20
2023-01-04T16:21:09.325Z,91.25
2023-01-04T16:25:11.552Z,91.25
2023-01-04T16:29:13.541Z,91.29
2023-01-04T16:33:13.708Z,91.29
2023-01-04T16:37:13.424Z,91.35
2023-01-04T16:41:32.803Z,91.42
2023-01-04T16:44:50.936Z,91.48
2023-01-04T16:48:51.855Z,91.57
2023-01-04T16:52:51.428Z,91.66
2023-01-04T16:56:51.062Z,91.72
2023-01-04T17:01:11.239Z,91.75
2023-01-04T17:04:28.378Z,91.79
2023-01-04T17:08:28.481Z,91.87
2023-01-04T17:12:47.441Z,91.81
2023-01-04T17:16:48.012Z,91.73
2023-01-04T17:21:31.867Z,91.61
2023-01-04T17:25:22.220Z,91.46
2023-01-04T17:29:21.785Z,91.28
2023-01-04T17:33:21.263Z,91.19
2023-01-04T17:37:21.390Z,91.15
2023-01-04T17:41:07.788Z,91.19
2023-01-04T17:45:07.384Z,91.34
2023-01-04T17:49:30.559Z,91.40
2023-01-04T17:53:27.808Z,91.43
2023-01-04T17:57:28.950Z,91.40
2023-01-04T18:01:29.348Z,91.36
2023-01-04T18:05:31.884Z,91.37
2023-01-04T18:09:31.978Z,91.43
2023-01-04T18:13:34.115Z,91.49
2023-01-04T18:17:33.624Z,91.59
2023-01-04T18:21:32.806Z,91.60
2023-01-04T18:25:35.345Z,91.61
2023-01-04T18:29:35.385Z,91.68
2023-01-04T18:33:34.522Z,91.73
2023-01-04T18:37:33.628Z,91.73
2023-01-04T18:41:34.114Z,91.78
2023-01-04T18:45:33.558Z,91.84
2023-01-04T18:49:33.021Z,91.86
2023-01-04T18:53:32.601Z,91.87
2023-01-04T18:57:32.736Z,91.87
2023-01-04T19:01:32.463Z,91.89
2023-01-04T19:05:32.388Z,91.94
2023-01-04T19:09:31.612Z,92.02
2023-01-04T19:13:31.235Z,92.07
2023-01-04T19:17:44.257Z,92.18
2023-01-04T19:21:43.793Z,92.31
2023-01-04T19:25:42.914Z,92.43
2023-01-04T19:29:42.258Z,92.56
2023-01-04T19:33:42.032Z,92.60
2023-01-04T19:37:41.636Z,92.61
2023-01-04T19:41:41.864Z,92.69
2023-01-04T19:45:42.845Z,92.84
2023-01-04T19:49:42.310Z,92.93
2023-01-04T19:53:42.799Z,92.97
2023-01-04T19:57:41.918Z,93.02
2023-01-04T20:01:41.816Z,93.01
2023-01-04T20:05:41.729Z,92.93
2023-01-04T20:09:41.282Z,92.89
2023-01-04T20:13:40.817Z,92.75
2023-01-04T20:17:40.473Z,92.65
2023-01-04T20:21:39.781Z,92.57
2023-01-04T20:25:53.785Z,92.50
2023-01-04T20:29:53.257Z,92.50
2023-01-04T20:33:53.136Z,92.48
2023-01-04T20:37:58.122Z,92.48
2023-01-04T20:42:16.297Z,92.52
2023-01-04T20:46:17.940Z,92.54
2023-01-04T20:50:17.561Z,92.53
2023-01-04T20:54:17.651Z,92.60
2023-01-04T20:58:17.379Z,92.63
2023-01-04T21:02:17.179Z,92.76
2023-01-04T21:06:18.012Z,92.80
2023-01-04T21:10:17.643Z,92.73
2023-01-04T21:14:17.596Z,92.66
2023-01-04T21:18:17.138Z,92.60
2023-01-04T21:22:35.478Z,92.49
2023-01-04T21:25:54.406Z,92.45
2023-01-04T21:29:53.616Z,92.39
2023-01-04T21:33:53.636Z,92.17
2023-01-04T21:38:07.521Z,92.02
2023-01-04T21:42:07.234Z,91.94
2023-01-04T21:46:15.979Z,91.91
2023-01-04T21:50:17.343Z,91.93
2023-01-04T21:54:30.932Z,91.99
2023-01-04T21:58:30.898Z,92.02
2023-01-04T22:02:31.062Z,92.03
2023-01-04T22:06:08.644Z,92.05
2023-01-04T22:10:08.773Z,92.13
2023-01-04T22:14:08.321Z,92.15
2023-01-04T22:18:09.998Z,92.10
2023-01-04T22:21:45.416Z,92.17
2023-01-04T22:25:44.853Z,92.09
2023-01-04T22:29:44.333Z,92.01
2023-01-04T22:33:44.193Z,92.01
2023-01-04T22:37:43.818Z,91.91
2023-01-04T22:41:44.510Z,91.81
2023-01-04T22:45:44.660Z,91.74
2023-01-04T22:49:43.957Z,91.76
2023-01-04T22:53:43.479Z,91.85
2023-01-04T22:57:43.997Z,92.14
2023-01-04T23:01:43.817Z,92.46
2023-01-04T23:05:43.984Z,92.55
2023-01-04T23:09:43.626Z,92.42
2023-01-04T23:13:43.588Z,92.23
2023-01-04T23:17:43.647Z,92.00
2023-01-04T23:21:43.208Z,91.88
2023-01-04T23:25:42.939Z,91.61
2023-01-04T23:29:42.255Z,91.10
2023-01-04T23:33:41.582Z,90.84
2023-01-04T23:37:40.751Z,90.53
2023-01-04T23:41:59.020Z,90.47
2023-01-04T23:45:17.641Z,90.35
2023-01-04T23:49:16.893Z,90.29
2023-01-04T23:53:35.492Z,90.31
2023-01-04T23:56:54.488Z,90.23
